Bridgeport, CT (06605)

4:54 AM EST on December 03, 2016 (GMT -0500)
APRSWXNET | | Change Station

Elev 32 ft 41.15 °N, 73.24 °W | Updated 25 minutes ago

Scattered Clouds
Scattered Clouds
41 °F
Feels Like 37 °F
N
6
Wind Variable Wind from NW
Gusts 10.0 mph

Today
High -- | Low -- °F
--% Chance of Precip.
Yesterday
High -- | Low -- °F
Precip. -- in
Pressure 29.89 in
Visibility 10.0 miles
Clouds Scattered Clouds 5500 ft
Windchill 37 °F
Dew Point 30 °F
Humidity 65%
Rainfall in
Snow Depth Not available.
7:01 AM 4:24 PM
Waxing Crescent, 14% visible
METAR KBDR 030852Z AUTO 29008KT 10SM SCT055 06/M02 A2989 RMK AO2 SLP121 T00561022 53008
Pressure 29.89 in
Visibility 10.0 miles
Clouds Scattered Clouds 5500 ft
Windchill 37 °F
Dew Point 30 °F
Humidity 65%
Rainfall in
Snow Depth Not available.
7:01 AM 4:24 PM
Waxing Crescent, 14% visible
METAR KBDR 030852Z AUTO 29008KT 10SM SCT055 06/M02 A2989 RMK AO2 SLP121 T00561022 53008

10-Day Weather Forecast

Almanac

Astronomy

Dec. 03, 2016 Rise Set
Actual Time
Civil Twilight
Nautical Twilight
Astronomical Twilight
Moon
Length of Visible Light
Length of Day
Tomorrow will be .
, % of the Moon is Illuminated

Today's Extremes

State Highs State Lows

Community

WunderPhotos

Upload Photos

1,955,434 photos uploaded!

WunderBlog® & News

Nearby

Air Quality

  Air Quality AQ Index Pollutant
Not available.

Snow Depth

Station Depth Elevation

Earthquake Activity

City Distance Mag. Time & Date
Minimum magnitude displayed is 2.5.

Coastal Water Temperatures

Place Temperature

Stations

Nearby Weather Stations

Station Location Temp. Windchill Dew Point Humidity Wind Precip. Elev Updated Type
                   

Watches & Warnings

There are currently no watches in effect.